sensor_id;sensor_type;location;lat;lon;timestamp;P1;durP1;ratioP1;P2;durP2;ratioP2
5696;SDS011;2873;50.966;7.210;2022-08-23T00:01:51;4.90;;;3.60;;
5696;SDS011;2873;50.966;7.210;2022-08-23T00:04:19;5.50;;;3.90;;
5696;SDS011;2873;50.966;7.210;2022-08-23T00:06:48;5.23;;;3.90;;
5696;SDS011;2873;50.966;7.210;2022-08-23T00:09:15;3.70;;;3.40;;
5696;SDS011;2873;50.966;7.210;2022-08-23T00:11:47;4.90;;;4.10;;
5696;SDS011;2873;50.966;7.210;2022-08-23T00:14:17;4.18;;;3.78;;
5696;SDS011;2873;50.966;7.210;2022-08-23T00:16:45;5.60;;;4.00;;
5696;SDS011;2873;50.966;7.210;2022-08-23T00:19:12;8.13;;;4.27;;
5696;SDS011;2873;50.966;7.210;2022-08-23T00:21:41;4.00;;;3.60;;
5696;SDS011;2873;50.966;7.210;2022-08-23T00:24:08;5.40;;;3.80;;
5696;SDS011;2873;50.966;7.210;2022-08-23T00:29:36;4.10;;;3.70;;
5696;SDS011;2873;50.966;7.210;2022-08-23T00:32:08;6.05;;;4.18;;
5696;SDS011;2873;50.966;7.210;2022-08-23T00:34:36;4.30;;;3.83;;
5696;SDS011;2873;50.966;7.210;2022-08-23T00:37:03;4.57;;;4.00;;
5696;SDS011;2873;50.966;7.210;2022-08-23T00:39:29;5.90;;;4.00;;
5696;SDS011;2873;50.966;7.210;2022-08-23T00:41:57;4.25;;;3.80;;
5696;SDS011;2873;50.966;7.210;2022-08-23T00:44:47;4.70;;;4.00;;
5696;SDS011;2873;50.966;7.210;2022-08-23T00:47:32;4.28;;;3.45;;
5696;SDS011;2873;50.966;7.210;2022-08-23T00:53:00;4.72;;;4.15;;
5696;SDS011;2873;50.966;7.210;2022-08-23T00:55:34;5.10;;;4.20;;
5696;SDS011;2873;50.966;7.210;2022-08-23T00:58:00;4.70;;;3.80;;
5696;SDS011;2873;50.966;7.210;2022-08-23T01:00:26;5.18;;;4.50;;
5696;SDS011;2873;50.966;7.210;2022-08-23T01:02:53;6.80;;;4.00;;
5696;SDS011;2873;50.966;7.210;2022-08-23T01:05:20;4.90;;;4.40;;
5696;SDS011;2873;50.966;7.210;2022-08-23T01:07:50;5.10;;;4.00;;
5696;SDS011;2873;50.966;7.210;2022-08-23T01:12:52;4.70;;;4.22;;
5696;SDS011;2873;50.966;7.210;2022-08-23T01:15:27;6.05;;;4.00;;
5696;SDS011;2873;50.966;7.210;2022-08-23T01:18:11;4.45;;;4.05;;
5696;SDS011;2873;50.966;7.210;2022-08-23T01:20:45;6.28;;;4.45;;
5696;SDS011;2873;50.966;7.210;2022-08-23T01:23:28;8.65;;;4.53;;
5696;SDS011;2873;50.966;7.210;2022-08-23T01:25:55;4.90;;;4.40;;
5696;SDS011;2873;50.966;7.210;2022-08-23T01:28:22;9.07;;;4.28;;
5696;SDS011;2873;50.966;7.210;2022-08-23T01:30:48;4.97;;;4.20;;
5696;SDS011;2873;50.966;7.210;2022-08-23T01:33:13;4.32;;;3.92;;
5696;SDS011;2873;50.966;7.210;2022-08-23T01:35:42;5.10;;;4.60;;
5696;SDS011;2873;50.966;7.210;2022-08-23T01:38:19;4.50;;;4.10;;
5696;SDS011;2873;50.966;7.210;2022-08-23T01:40:46;5.83;;;4.53;;
5696;SDS011;2873;50.966;7.210;2022-08-23T01:43:12;4.78;;;3.90;;
5696;SDS011;2873;50.966;7.210;2022-08-23T01:45:39;4.80;;;4.40;;
5696;SDS011;2873;50.966;7.210;2022-08-23T01:48:06;4.75;;;4.32;;
5696;SDS011;2873;50.966;7.210;2022-08-23T01:50:31;5.38;;;4.32;;
5696;SDS011;2873;50.966;7.210;2022-08-23T01:52:57;6.23;;;4.30;;
5696;SDS011;2873;50.966;7.210;2022-08-23T01:55:23;4.72;;;4.32;;
5696;SDS011;2873;50.966;7.210;2022-08-23T01:57:51;6.25;;;4.00;;
5696;SDS011;2873;50.966;7.210;2022-08-23T02:00:21;4.87;;;4.30;;
5696;SDS011;2873;50.966;7.210;2022-08-23T02:02:48;4.85;;;3.78;;
5696;SDS011;2873;50.966;7.210;2022-08-23T02:05:14;4.30;;;3.90;;
5696;SDS011;2873;50.966;7.210;2022-08-23T02:07:40;4.40;;;3.90;;
5696;SDS011;2873;50.966;7.210;2022-08-23T02:10:06;5.10;;;3.90;;
5696;SDS011;2873;50.966;7.210;2022-08-23T02:12:33;5.93;;;4.30;;
5696;SDS011;2873;50.966;7.210;2022-08-23T02:14:59;5.22;;;3.88;;
5696;SDS011;2873;50.966;7.210;2022-08-23T02:17:25;5.10;;;3.90;;
5696;SDS011;2873;50.966;7.210;2022-08-23T02:19:51;7.45;;;4.20;;
5696;SDS011;2873;50.966;7.210;2022-08-23T02:22:16;6.05;;;3.88;;
5696;SDS011;2873;50.966;7.210;2022-08-23T02:24:43;5.40;;;4.33;;
5696;SDS011;2873;50.966;7.210;2022-08-23T02:27:10;5.05;;;3.97;;
5696;SDS011;2873;50.966;7.210;2022-08-23T02:29:39;6.50;;;4.53;;
5696;SDS011;2873;50.966;7.210;2022-08-23T02:32:06;3.90;;;3.60;;
5696;SDS011;2873;50.966;7.210;2022-08-23T02:34:33;4.00;;;3.50;;
5696;SDS011;2873;50.966;7.210;2022-08-23T02:36:59;4.20;;;3.80;;
5696;SDS011;2873;50.966;7.210;2022-08-23T02:39:24;4.10;;;3.80;;
5696;SDS011;2873;50.966;7.210;2022-08-23T02:41:50;5.70;;;3.97;;
5696;SDS011;2873;50.966;7.210;2022-08-23T02:44:17;4.50;;;3.85;;
5696;SDS011;2873;50.966;7.210;2022-08-23T02:46:43;8.15;;;3.80;;
5696;SDS011;2873;50.966;7.210;2022-08-23T02:49:10;5.27;;;4.20;;
5696;SDS011;2873;50.966;7.210;2022-08-23T02:51:36;4.10;;;3.80;;
5696;SDS011;2873;50.966;7.210;2022-08-23T02:54:02;6.93;;;3.67;;
5696;SDS011;2873;50.966;7.210;2022-08-23T02:56:29;4.55;;;3.95;;
5696;SDS011;2873;50.966;7.210;2022-08-23T02:58:56;4.47;;;4.07;;
5696;SDS011;2873;50.966;7.210;2022-08-23T03:01:27;3.90;;;3.50;;
5696;SDS011;2873;50.966;7.210;2022-08-23T03:03:55;4.10;;;3.65;;
5696;SDS011;2873;50.966;7.210;2022-08-23T03:06:21;4.80;;;4.00;;
5696;SDS011;2873;50.966;7.210;2022-08-23T03:08:47;4.35;;;3.53;;
5696;SDS011;2873;50.966;7.210;2022-08-23T03:11:14;5.00;;;3.70;;
5696;SDS011;2873;50.966;7.210;2022-08-23T03:13:45;6.00;;;3.90;;
5696;SDS011;2873;50.966;7.210;2022-08-23T03:16:11;3.90;;;3.60;;
5696;SDS011;2873;50.966;7.210;2022-08-23T03:18:38;8.23;;;4.43;;
5696;SDS011;2873;50.966;7.210;2022-08-23T03:21:05;4.22;;;3.83;;
5696;SDS011;2873;50.966;7.210;2022-08-23T03:23:32;4.45;;;4.00;;
5696;SDS011;2873;50.966;7.210;2022-08-23T03:25:59;4.95;;;3.80;;
5696;SDS011;2873;50.966;7.210;2022-08-23T03:28:27;3.90;;;3.60;;
5696;SDS011;2873;50.966;7.210;2022-08-23T03:30:53;4.38;;;3.97;;
5696;SDS011;2873;50.966;7.210;2022-08-23T03:33:19;4.53;;;3.72;;
5696;SDS011;2873;50.966;7.210;2022-08-23T03:35:45;4.18;;;3.88;;
5696;SDS011;2873;50.966;7.210;2022-08-23T03:38:11;7.15;;;4.30;;
5696;SDS011;2873;50.966;7.210;2022-08-23T03:40:38;4.60;;;3.83;;
5696;SDS011;2873;50.966;7.210;2022-08-23T03:43:04;4.40;;;4.00;;
5696;SDS011;2873;50.966;7.210;2022-08-23T03:45:30;7.83;;;4.10;;
5696;SDS011;2873;50.966;7.210;2022-08-23T03:47:55;7.47;;;3.90;;
5696;SDS011;2873;50.966;7.210;2022-08-23T03:50:21;4.00;;;3.70;;
5696;SDS011;2873;50.966;7.210;2022-08-23T03:52:48;4.97;;;4.47;;
5696;SDS011;2873;50.966;7.210;2022-08-23T03:55:14;5.83;;;4.40;;
5696;SDS011;2873;50.966;7.210;2022-08-23T03:57:40;4.97;;;4.43;;
5696;SDS011;2873;50.966;7.210;2022-08-23T04:00:06;5.25;;;4.30;;
5696;SDS011;2873;50.966;7.210;2022-08-23T04:02:35;6.28;;;3.88;;
5696;SDS011;2873;50.966;7.210;2022-08-23T04:05:00;7.37;;;4.00;;
5696;SDS011;2873;50.966;7.210;2022-08-23T04:07:26;6.25;;;4.20;;
5696;SDS011;2873;50.966;7.210;2022-08-23T04:09:51;6.60;;;4.17;;
5696;SDS011;2873;50.966;7.210;2022-08-23T04:12:17;6.63;;;4.00;;
5696;SDS011;2873;50.966;7.210;2022-08-23T04:14:43;8.40;;;3.90;;
5696;SDS011;2873;50.966;7.210;2022-08-23T04:17:10;4.30;;;3.90;;
5696;SDS011;2873;50.966;7.210;2022-08-23T04:19:36;4.80;;;4.10;;
5696;SDS011;2873;50.966;7.210;2022-08-23T04:22:02;4.17;;;3.87;;
5696;SDS011;2873;50.966;7.210;2022-08-23T04:24:28;3.60;;;3.40;;
5696;SDS011;2873;50.966;7.210;2022-08-23T04:26:53;4.30;;;3.90;;
5696;SDS011;2873;50.966;7.210;2022-08-23T04:29:19;4.65;;;3.97;;
5696;SDS011;2873;50.966;7.210;2022-08-23T04:31:46;4.27;;;3.80;;
5696;SDS011;2873;50.966;7.210;2022-08-23T04:34:12;4.88;;;3.75;;
5696;SDS011;2873;50.966;7.210;2022-08-23T04:36:40;6.53;;;4.13;;
5696;SDS011;2873;50.966;7.210;2022-08-23T04:39:07;5.05;;;3.80;;
5696;SDS011;2873;50.966;7.210;2022-08-23T04:41:33;4.97;;;4.10;;
5696;SDS011;2873;50.966;7.210;2022-08-23T04:44:17;5.10;;;4.60;;
5696;SDS011;2873;50.966;7.210;2022-08-23T04:46:43;6.20;;;4.97;;
5696;SDS011;2873;50.966;7.210;2022-08-23T04:49:09;7.32;;;4.50;;
5696;SDS011;2873;50.966;7.210;2022-08-23T04:51:35;5.25;;;4.30;;
5696;SDS011;2873;50.966;7.210;2022-08-23T04:54:01;4.38;;;3.97;;
5696;SDS011;2873;50.966;7.210;2022-08-23T04:56:27;4.72;;;4.32;;
5696;SDS011;2873;50.966;7.210;2022-08-23T04:58:52;4.77;;;4.37;;
5696;SDS011;2873;50.966;7.210;2022-08-23T05:01:18;7.30;;;4.20;;
5696;SDS011;2873;50.966;7.210;2022-08-23T05:03:44;5.07;;;4.07;;
5696;SDS011;2873;50.966;7.210;2022-08-23T05:06:10;4.55;;;3.90;;
5696;SDS011;2873;50.966;7.210;2022-08-23T05:08:36;4.85;;;4.10;;
5696;SDS011;2873;50.966;7.210;2022-08-23T05:11:03;4.80;;;4.05;;
5696;SDS011;2873;50.966;7.210;2022-08-23T05:13:30;7.22;;;4.40;;
5696;SDS011;2873;50.966;7.210;2022-08-23T05:15:57;4.40;;;4.00;;
5696;SDS011;2873;50.966;7.210;2022-08-23T05:18:23;4.40;;;4.00;;
5696;SDS011;2873;50.966;7.210;2022-08-23T05:20:49;4.25;;;3.90;;
5696;SDS011;2873;50.966;7.210;2022-08-23T05:23:15;7.10;;;4.28;;
5696;SDS011;2873;50.966;7.210;2022-08-23T05:25:40;6.70;;;4.67;;
5696;SDS011;2873;50.966;7.210;2022-08-23T05:28:16;7.10;;;3.97;;
5696;SDS011;2873;50.966;7.210;2022-08-23T05:30:52;6.47;;;4.00;;
5696;SDS011;2873;50.966;7.210;2022-08-23T05:33:20;5.00;;;4.32;;
5696;SDS011;2873;50.966;7.210;2022-08-23T05:35:45;5.15;;;3.85;;
5696;SDS011;2873;50.966;7.210;2022-08-23T05:38:11;4.50;;;4.00;;
5696;SDS011;2873;50.966;7.210;2022-08-23T05:40:36;8.20;;;4.33;;
5696;SDS011;2873;50.966;7.210;2022-08-23T05:43:02;7.25;;;4.35;;
5696;SDS011;2873;50.966;7.210;2022-08-23T05:45:28;4.40;;;4.00;;
5696;SDS011;2873;50.966;7.210;2022-08-23T05:47:53;5.10;;;3.70;;
5696;SDS011;2873;50.966;7.210;2022-08-23T05:50:19;4.00;;;3.70;;
5696;SDS011;2873;50.966;7.210;2022-08-23T05:52:46;4.23;;;3.03;;
5696;SDS011;2873;50.966;7.210;2022-08-23T05:55:12;3.72;;;3.42;;
5696;SDS011;2873;50.966;7.210;2022-08-23T05:57:37;6.03;;;3.70;;
5696;SDS011;2873;50.966;7.210;2022-08-23T06:00:04;11.80;;;3.80;;
5696;SDS011;2873;50.966;7.210;2022-08-23T06:02:31;5.87;;;4.07;;
5696;SDS011;2873;50.966;7.210;2022-08-23T06:04:57;4.32;;;3.85;;
5696;SDS011;2873;50.966;7.210;2022-08-23T06:07:23;7.57;;;3.60;;
5696;SDS011;2873;50.966;7.210;2022-08-23T06:09:48;4.57;;;3.38;;
5696;SDS011;2873;50.966;7.210;2022-08-23T06:12:14;4.00;;;3.67;;
5696;SDS011;2873;50.966;7.210;2022-08-23T06:14:40;3.60;;;3.30;;
5696;SDS011;2873;50.966;7.210;2022-08-23T06:17:05;7.38;;;3.72;;
5696;SDS011;2873;50.966;7.210;2022-08-23T06:19:31;3.60;;;3.30;;
5696;SDS011;2873;50.966;7.210;2022-08-23T06:21:57;6.25;;;3.13;;
5696;SDS011;2873;50.966;7.210;2022-08-23T06:24:23;5.20;;;3.30;;
5696;SDS011;2873;50.966;7.210;2022-08-23T06:26:48;3.17;;;2.87;;
5696;SDS011;2873;50.966;7.210;2022-08-23T06:29:15;5.60;;;3.00;;
5696;SDS011;2873;50.966;7.210;2022-08-23T06:31:43;3.13;;;2.50;;
5696;SDS011;2873;50.966;7.210;2022-08-23T06:34:15;3.60;;;3.30;;
5696;SDS011;2873;50.966;7.210;2022-08-23T06:36:53;4.07;;;3.25;;
5696;SDS011;2873;50.966;7.210;2022-08-23T06:39:23;3.45;;;2.90;;
5696;SDS011;2873;50.966;7.210;2022-08-23T06:41:51;5.70;;;3.13;;
5696;SDS011;2873;50.966;7.210;2022-08-23T06:44:18;7.78;;;2.97;;
5696;SDS011;2873;50.966;7.210;2022-08-23T06:46:44;3.67;;;3.10;;
5696;SDS011;2873;50.966;7.210;2022-08-23T06:49:12;6.00;;;2.90;;
5696;SDS011;2873;50.966;7.210;2022-08-23T06:51:39;6.10;;;3.17;;
5696;SDS011;2873;50.966;7.210;2022-08-23T06:54:08;7.05;;;2.92;;
5696;SDS011;2873;50.966;7.210;2022-08-23T06:56:35;3.53;;;3.03;;
5696;SDS011;2873;50.966;7.210;2022-08-23T06:59:01;3.27;;;3.00;;
5696;SDS011;2873;50.966;7.210;2022-08-23T07:04:05;5.30;;;3.40;;
5696;SDS011;2873;50.966;7.210;2022-08-23T07:06:32;7.47;;;3.00;;
5696;SDS011;2873;50.966;7.210;2022-08-23T07:08:58;5.05;;;2.65;;
5696;SDS011;2873;50.966;7.210;2022-08-23T07:11:25;3.90;;;3.05;;
5696;SDS011;2873;50.966;7.210;2022-08-23T07:13:53;10.07;;;3.78;;
5696;SDS011;2873;50.966;7.210;2022-08-23T07:16:19;5.35;;;2.60;;
5696;SDS011;2873;50.966;7.210;2022-08-23T07:18:45;5.27;;;3.00;;
5696;SDS011;2873;50.966;7.210;2022-08-23T07:21:13;3.33;;;2.75;;
5696;SDS011;2873;50.966;7.210;2022-08-23T07:23:39;5.13;;;3.00;;
5696;SDS011;2873;50.966;7.210;2022-08-23T07:26:08;5.00;;;3.10;;
5696;SDS011;2873;50.966;7.210;2022-08-23T07:28:34;4.60;;;2.90;;
5696;SDS011;2873;50.966;7.210;2022-08-23T07:31:08;3.35;;;2.72;;
5696;SDS011;2873;50.966;7.210;2022-08-23T07:33:36;3.20;;;2.90;;
5696;SDS011;2873;50.966;7.210;2022-08-23T07:36:03;4.30;;;3.10;;
5696;SDS011;2873;50.966;7.210;2022-08-23T07:38:29;5.45;;;3.08;;
5696;SDS011;2873;50.966;7.210;2022-08-23T07:40:55;2.90;;;2.70;;
5696;SDS011;2873;50.966;7.210;2022-08-23T07:43:21;3.37;;;3.07;;
5696;SDS011;2873;50.966;7.210;2022-08-23T07:45:47;2.92;;;2.70;;
5696;SDS011;2873;50.966;7.210;2022-08-23T07:48:13;4.78;;;3.28;;
5696;SDS011;2873;50.966;7.210;2022-08-23T07:50:39;5.17;;;3.10;;
5696;SDS011;2873;50.966;7.210;2022-08-23T07:53:05;4.00;;;3.30;;
5696;SDS011;2873;50.966;7.210;2022-08-23T07:55:31;8.05;;;3.20;;
5696;SDS011;2873;50.966;7.210;2022-08-23T07:57:57;2.83;;;2.63;;
5696;SDS011;2873;50.966;7.210;2022-08-23T08:00:24;4.90;;;3.00;;
5696;SDS011;2873;50.966;7.210;2022-08-23T08:02:50;3.10;;;2.80;;
5696;SDS011;2873;50.966;7.210;2022-08-23T08:05:15;6.03;;;3.00;;
5696;SDS011;2873;50.966;7.210;2022-08-23T08:07:41;3.85;;;2.90;;
5696;SDS011;2873;50.966;7.210;2022-08-23T08:10:07;4.50;;;3.20;;
5696;SDS011;2873;50.966;7.210;2022-08-23T08:12:33;5.43;;;3.20;;
5696;SDS011;2873;50.966;7.210;2022-08-23T08:14:59;6.18;;;3.58;;
5696;SDS011;2873;50.966;7.210;2022-08-23T08:17:25;4.33;;;3.30;;
5696;SDS011;2873;50.966;7.210;2022-08-23T08:19:51;3.75;;;2.90;;
5696;SDS011;2873;50.966;7.210;2022-08-23T08:22:17;3.95;;;2.90;;
5696;SDS011;2873;50.966;7.210;2022-08-23T08:24:43;4.20;;;3.42;;
5696;SDS011;2873;50.966;7.210;2022-08-23T08:27:08;5.60;;;2.75;;
5696;SDS011;2873;50.966;7.210;2022-08-23T08:29:35;5.65;;;3.10;;
5696;SDS011;2873;50.966;7.210;2022-08-23T08:32:00;5.27;;;3.10;;
5696;SDS011;2873;50.966;7.210;2022-08-23T08:34:26;5.85;;;2.95;;
5696;SDS011;2873;50.966;7.210;2022-08-23T08:36:53;4.20;;;3.30;;
5696;SDS011;2873;50.966;7.210;2022-08-23T08:39:21;5.00;;;3.10;;
5696;SDS011;2873;50.966;7.210;2022-08-23T08:47:32;3.63;;;3.33;;
5696;SDS011;2873;50.966;7.210;2022-08-23T08:50:26;5.97;;;3.45;;
5696;SDS011;2873;50.966;7.210;2022-08-23T08:53:00;8.30;;;3.33;;
5696;SDS011;2873;50.966;7.210;2022-08-23T08:55:29;7.27;;;3.30;;
5696;SDS011;2873;50.966;7.210;2022-08-23T08:57:58;4.97;;;3.43;;
5696;SDS011;2873;50.966;7.210;2022-08-23T09:00:30;5.38;;;3.35;;
5696;SDS011;2873;50.966;7.210;2022-08-23T09:02:59;5.32;;;3.70;;
5696;SDS011;2873;50.966;7.210;2022-08-23T09:05:33;4.90;;;3.60;;
5696;SDS011;2873;50.966;7.210;2022-08-23T09:16:53;5.25;;;3.20;;
5696;SDS011;2873;50.966;7.210;2022-08-23T09:19:26;3.72;;;3.38;;
5696;SDS011;2873;50.966;7.210;2022-08-23T09:24:27;3.70;;;3.20;;
5696;SDS011;2873;50.966;7.210;2022-08-23T09:26:54;4.05;;;3.40;;
5696;SDS011;2873;50.966;7.210;2022-08-23T09:31:55;7.40;;;3.60;;
5696;SDS011;2873;50.966;7.210;2022-08-23T09:37:16;4.93;;;3.00;;
5696;SDS011;2873;50.966;7.210;2022-08-23T09:39:47;4.00;;;3.60;;
5696;SDS011;2873;50.966;7.210;2022-08-23T09:44:52;6.07;;;3.50;;
5696;SDS011;2873;50.966;7.210;2022-08-23T09:47:17;6.50;;;3.92;;
5696;SDS011;2873;50.966;7.210;2022-08-23T09:49:44;4.97;;;3.67;;
5696;SDS011;2873;50.966;7.210;2022-08-23T09:52:26;6.32;;;3.45;;
5696;SDS011;2873;50.966;7.210;2022-08-23T09:54:59;6.70;;;4.07;;
5696;SDS011;2873;50.966;7.210;2022-08-23T09:57:29;5.25;;;3.33;;
5696;SDS011;2873;50.966;7.210;2022-08-23T10:00:03;4.32;;;3.65;;
5696;SDS011;2873;50.966;7.210;2022-08-23T10:02:53;5.47;;;3.53;;
5696;SDS011;2873;50.966;7.210;2022-08-23T10:05:36;5.20;;;3.78;;
5696;SDS011;2873;50.966;7.210;2022-08-23T10:08:05;7.10;;;3.70;;
5696;SDS011;2873;50.966;7.210;2022-08-23T10:10:35;7.57;;;3.90;;
5696;SDS011;2873;50.966;7.210;2022-08-23T10:13:03;4.22;;;3.45;;
5696;SDS011;2873;50.966;7.210;2022-08-23T10:21:03;6.20;;;3.40;;
5696;SDS011;2873;50.966;7.210;2022-08-23T10:26:21;6.65;;;3.92;;
5696;SDS011;2873;50.966;7.210;2022-08-23T10:32:02;6.50;;;3.45;;
5696;SDS011;2873;50.966;7.210;2022-08-23T10:34:58;8.88;;;3.97;;
5696;SDS011;2873;50.966;7.210;2022-08-23T10:40:15;4.05;;;3.30;;
5696;SDS011;2873;50.966;7.210;2022-08-23T10:45:37;3.67;;;3.35;;
5696;SDS011;2873;50.966;7.210;2022-08-23T10:50:35;4.30;;;3.38;;
5696;SDS011;2873;50.966;7.210;2022-08-23T10:53:15;3.50;;;3.30;;
5696;SDS011;2873;50.966;7.210;2022-08-23T10:55:52;5.90;;;3.15;;
5696;SDS011;2873;50.966;7.210;2022-08-23T10:58:31;3.85;;;3.47;;
5696;SDS011;2873;50.966;7.210;2022-08-23T11:01:05;7.82;;;3.40;;
5696;SDS011;2873;50.966;7.210;2022-08-23T11:06:50;3.40;;;3.10;;
5696;SDS011;2873;50.966;7.210;2022-08-23T11:14:56;6.43;;;2.90;;
5696;SDS011;2873;50.966;7.210;2022-08-23T11:17:01;6.20;;;3.28;;
5696;SDS011;2873;50.966;7.210;2022-08-23T11:27:46;3.20;;;2.90;;
5696;SDS011;2873;50.966;7.210;2022-08-23T11:35:46;2.70;;;2.50;;
5696;SDS011;2873;50.966;7.210;2022-08-23T11:38:16;4.88;;;2.70;;
5696;SDS011;2873;50.966;7.210;2022-08-23T11:41:10;4.32;;;2.70;;
5696;SDS011;2873;50.966;7.210;2022-08-23T11:51:25;3.20;;;2.53;;
5696;SDS011;2873;50.966;7.210;2022-08-23T12:16:03;5.95;;;2.40;;
5696;SDS011;2873;50.966;7.210;2022-08-23T12:26:57;5.75;;;2.25;;
5696;SDS011;2873;50.966;7.210;2022-08-23T12:38:13;3.20;;;2.50;;
5696;SDS011;2873;50.966;7.210;2022-08-23T12:40:57;2.53;;;2.33;;
5696;SDS011;2873;50.966;7.210;2022-08-23T12:43:35;3.40;;;3.10;;
5696;SDS011;2873;50.966;7.210;2022-08-23T12:46:01;4.10;;;2.85;;
5696;SDS011;2873;50.966;7.210;2022-08-23T12:48:30;3.13;;;1.90;;
5696;SDS011;2873;50.966;7.210;2022-08-23T12:51:11;3.40;;;2.30;;
5696;SDS011;2873;50.966;7.210;2022-08-23T12:53:38;3.90;;;1.80;;
5696;SDS011;2873;50.966;7.210;2022-08-23T12:56:08;2.40;;;2.00;;
5696;SDS011;2873;50.966;7.210;2022-08-23T12:58:43;8.32;;;2.20;;
5696;SDS011;2873;50.966;7.210;2022-08-23T13:01:25;2.10;;;1.90;;
5696;SDS011;2873;50.966;7.210;2022-08-23T13:03:57;4.75;;;2.38;;
5696;SDS011;2873;50.966;7.210;2022-08-23T13:06:31;2.45;;;2.10;;
5696;SDS011;2873;50.966;7.210;2022-08-23T13:09:04;2.10;;;2.00;;
5696;SDS011;2873;50.966;7.210;2022-08-23T13:11:43;4.40;;;2.17;;
5696;SDS011;2873;50.966;7.210;2022-08-23T13:22:34;2.20;;;2.10;;
5696;SDS011;2873;50.966;7.210;2022-08-23T13:32:44;3.73;;;1.80;;
5696;SDS011;2873;50.966;7.210;2022-08-23T13:35:22;3.47;;;2.20;;
5696;SDS011;2873;50.966;7.210;2022-08-23T13:37:48;5.22;;;2.13;;
5696;SDS011;2873;50.966;7.210;2022-08-23T13:40:23;6.25;;;2.00;;
5696;SDS011;2873;50.966;7.210;2022-08-23T13:42:57;3.15;;;2.30;;
5696;SDS011;2873;50.966;7.210;2022-08-23T13:45:30;2.60;;;2.20;;
5696;SDS011;2873;50.966;7.210;2022-08-23T13:47:59;4.13;;;2.20;;
5696;SDS011;2873;50.966;7.210;2022-08-23T13:50:32;4.35;;;2.10;;
5696;SDS011;2873;50.966;7.210;2022-08-23T13:52:58;3.47;;;2.33;;
5696;SDS011;2873;50.966;7.210;2022-08-23T13:55:25;4.18;;;2.20;;
5696;SDS011;2873;50.966;7.210;2022-08-23T13:57:52;4.38;;;2.50;;
5696;SDS011;2873;50.966;7.210;2022-08-23T14:00:19;2.70;;;2.50;;
5696;SDS011;2873;50.966;7.210;2022-08-23T14:02:45;3.50;;;2.40;;
5696;SDS011;2873;50.966;7.210;2022-08-23T14:05:13;3.38;;;2.20;;
5696;SDS011;2873;50.966;7.210;2022-08-23T14:07:41;2.50;;;2.30;;
5696;SDS011;2873;50.966;7.210;2022-08-23T14:10:07;4.80;;;2.45;;
5696;SDS011;2873;50.966;7.210;2022-08-23T14:12:33;5.90;;;2.30;;
5696;SDS011;2873;50.966;7.210;2022-08-23T14:15:01;5.40;;;2.20;;
5696;SDS011;2873;50.966;7.210;2022-08-23T14:17:28;5.55;;;2.42;;
5696;SDS011;2873;50.966;7.210;2022-08-23T14:19:55;2.90;;;2.20;;
5696;SDS011;2873;50.966;7.210;2022-08-23T14:22:20;4.77;;;2.20;;
5696;SDS011;2873;50.966;7.210;2022-08-23T14:24:46;2.93;;;2.50;;
5696;SDS011;2873;50.966;7.210;2022-08-23T14:27:11;4.50;;;2.10;;
5696;SDS011;2873;50.966;7.210;2022-08-23T14:29:37;4.43;;;2.03;;
5696;SDS011;2873;50.966;7.210;2022-08-23T14:32:03;2.53;;;2.10;;
5696;SDS011;2873;50.966;7.210;2022-08-23T14:34:29;4.80;;;2.20;;
5696;SDS011;2873;50.966;7.210;2022-08-23T14:36:55;2.00;;;1.90;;
5696;SDS011;2873;50.966;7.210;2022-08-23T14:39:22;2.50;;;2.30;;
5696;SDS011;2873;50.966;7.210;2022-08-23T14:41:48;3.50;;;2.20;;
5696;SDS011;2873;50.966;7.210;2022-08-23T14:44:15;2.60;;;2.10;;
5696;SDS011;2873;50.966;7.210;2022-08-23T14:46:42;4.20;;;2.30;;
5696;SDS011;2873;50.966;7.210;2022-08-23T14:49:08;3.20;;;2.13;;
5696;SDS011;2873;50.966;7.210;2022-08-23T14:51:35;4.93;;;2.28;;
5696;SDS011;2873;50.966;7.210;2022-08-23T14:54:04;3.90;;;2.25;;
5696;SDS011;2873;50.966;7.210;2022-08-23T14:56:31;3.20;;;2.70;;
5696;SDS011;2873;50.966;7.210;2022-08-23T14:58:57;4.68;;;2.17;;
5696;SDS011;2873;50.966;7.210;2022-08-23T15:01:23;2.47;;;2.33;;
5696;SDS011;2873;50.966;7.210;2022-08-23T15:03:49;5.40;;;2.50;;
5696;SDS011;2873;50.966;7.210;2022-08-23T15:06:15;4.53;;;2.40;;
5696;SDS011;2873;50.966;7.210;2022-08-23T15:08:42;4.43;;;2.30;;
5696;SDS011;2873;50.966;7.210;2022-08-23T15:11:09;3.97;;;2.13;;
5696;SDS011;2873;50.966;7.210;2022-08-23T15:13:36;3.10;;;2.30;;
5696;SDS011;2873;50.966;7.210;2022-08-23T15:16:03;2.42;;;2.22;;
5696;SDS011;2873;50.966;7.210;2022-08-23T15:18:31;4.45;;;2.53;;
5696;SDS011;2873;50.966;7.210;2022-08-23T15:20:58;4.97;;;2.47;;
5696;SDS011;2873;50.966;7.210;2022-08-23T15:23:24;2.90;;;2.03;;
5696;SDS011;2873;50.966;7.210;2022-08-23T15:25:50;2.40;;;1.90;;
5696;SDS011;2873;50.966;7.210;2022-08-23T15:28:17;6.53;;;2.17;;
5696;SDS011;2873;50.966;7.210;2022-08-23T15:30:44;3.67;;;2.30;;
5696;SDS011;2873;50.966;7.210;2022-08-23T15:33:11;3.92;;;2.45;;
5696;SDS011;2873;50.966;7.210;2022-08-23T15:35:38;3.10;;;2.50;;
5696;SDS011;2873;50.966;7.210;2022-08-23T15:38:07;5.43;;;2.20;;
5696;SDS011;2873;50.966;7.210;2022-08-23T15:40:33;5.60;;;2.40;;
5696;SDS011;2873;50.966;7.210;2022-08-23T15:42:59;4.18;;;2.50;;
5696;SDS011;2873;50.966;7.210;2022-08-23T15:45:26;3.15;;;2.20;;
5696;SDS011;2873;50.966;7.210;2022-08-23T15:47:53;5.70;;;2.22;;
5696;SDS011;2873;50.966;7.210;2022-08-23T15:50:24;2.50;;;2.30;;
5696;SDS011;2873;50.966;7.210;2022-08-23T15:52:55;2.40;;;2.20;;
5696;SDS011;2873;50.966;7.210;2022-08-23T15:55:21;5.00;;;2.15;;
5696;SDS011;2873;50.966;7.210;2022-08-23T15:57:49;3.58;;;2.55;;
5696;SDS011;2873;50.966;7.210;2022-08-23T16:00:18;4.22;;;2.33;;
5696;SDS011;2873;50.966;7.210;2022-08-23T16:02:50;3.72;;;2.05;;
5696;SDS011;2873;50.966;7.210;2022-08-23T16:05:16;6.70;;;2.30;;
5696;SDS011;2873;50.966;7.210;2022-08-23T16:07:42;2.38;;;2.10;;
5696;SDS011;2873;50.966;7.210;2022-08-23T16:10:08;5.55;;;2.60;;
5696;SDS011;2873;50.966;7.210;2022-08-23T16:12:37;6.72;;;2.67;;
5696;SDS011;2873;50.966;7.210;2022-08-23T16:15:03;2.90;;;2.60;;
5696;SDS011;2873;50.966;7.210;2022-08-23T16:17:30;2.90;;;2.60;;
5696;SDS011;2873;50.966;7.210;2022-08-23T16:19:55;5.05;;;2.55;;
5696;SDS011;2873;50.966;7.210;2022-08-23T16:22:21;3.85;;;2.30;;
5696;SDS011;2873;50.966;7.210;2022-08-23T16:24:46;6.95;;;2.35;;
5696;SDS011;2873;50.966;7.210;2022-08-23T16:27:12;4.07;;;2.67;;
5696;SDS011;2873;50.966;7.210;2022-08-23T16:29:38;2.80;;;2.60;;
5696;SDS011;2873;50.966;7.210;2022-08-23T16:32:05;8.15;;;2.58;;
5696;SDS011;2873;50.966;7.210;2022-08-23T16:34:32;4.18;;;2.83;;
5696;SDS011;2873;50.966;7.210;2022-08-23T16:36:59;6.30;;;2.08;;
5696;SDS011;2873;50.966;7.210;2022-08-23T16:39:28;3.65;;;2.80;;
5696;SDS011;2873;50.966;7.210;2022-08-23T16:41:56;4.90;;;2.90;;
5696;SDS011;2873;50.966;7.210;2022-08-23T16:44:22;6.50;;;2.27;;
5696;SDS011;2873;50.966;7.210;2022-08-23T16:46:47;4.40;;;2.20;;
5696;SDS011;2873;50.966;7.210;2022-08-23T16:49:15;6.18;;;2.60;;
5696;SDS011;2873;50.966;7.210;2022-08-23T16:51:42;3.20;;;2.45;;
5696;SDS011;2873;50.966;7.210;2022-08-23T16:54:09;5.22;;;2.20;;
5696;SDS011;2873;50.966;7.210;2022-08-23T16:56:37;6.10;;;2.33;;
5696;SDS011;2873;50.966;7.210;2022-08-23T16:59:03;4.75;;;2.38;;
5696;SDS011;2873;50.966;7.210;2022-08-23T17:01:36;6.22;;;2.67;;
5696;SDS011;2873;50.966;7.210;2022-08-23T17:04:11;5.38;;;2.10;;
5696;SDS011;2873;50.966;7.210;2022-08-23T17:06:37;5.50;;;2.07;;
5696;SDS011;2873;50.966;7.210;2022-08-23T17:09:04;2.85;;;2.13;;
5696;SDS011;2873;50.966;7.210;2022-08-23T17:11:29;4.97;;;2.60;;
5696;SDS011;2873;50.966;7.210;2022-08-23T17:13:56;4.80;;;2.53;;
5696;SDS011;2873;50.966;7.210;2022-08-23T17:16:21;7.90;;;2.05;;
5696;SDS011;2873;50.966;7.210;2022-08-23T17:18:48;4.32;;;1.98;;
5696;SDS011;2873;50.966;7.210;2022-08-23T17:21:14;4.50;;;2.35;;
5696;SDS011;2873;50.966;7.210;2022-08-23T17:23:40;2.50;;;2.10;;
5696;SDS011;2873;50.966;7.210;2022-08-23T17:26:06;4.67;;;2.13;;
5696;SDS011;2873;50.966;7.210;2022-08-23T17:28:34;4.82;;;2.40;;
5696;SDS011;2873;50.966;7.210;2022-08-23T17:31:00;2.22;;;1.98;;
5696;SDS011;2873;50.966;7.210;2022-08-23T17:33:26;3.80;;;2.50;;
5696;SDS011;2873;50.966;7.210;2022-08-23T17:35:52;4.38;;;1.88;;
5696;SDS011;2873;50.966;7.210;2022-08-23T17:38:18;4.55;;;1.90;;
5696;SDS011;2873;50.966;7.210;2022-08-23T17:40:44;2.17;;;1.95;;
5696;SDS011;2873;50.966;7.210;2022-08-23T17:43:11;3.75;;;2.15;;